createdAt,value
2024-03-06T00:03:58.906Z,7.10
2024-03-06T00:08:50.718Z,6.68
2024-03-06T00:13:42.708Z,6.28
2024-03-06T00:18:34.653Z,7.47
2024-03-06T00:23:26.229Z,6.80
2024-03-06T00:28:17.934Z,6.03
2024-03-06T00:33:09.716Z,5.90
2024-03-06T00:38:04.554Z,6.13
2024-03-06T00:42:56.188Z,5.15
2024-03-06T00:47:47.962Z,4.10
2024-03-06T00:52:39.649Z,6.00
2024-03-06T00:57:31.269Z,5.43
2024-03-06T01:02:24.307Z,5.28
2024-03-06T01:07:18.131Z,4.40
2024-03-06T01:12:09.754Z,5.53
2024-03-06T01:17:01.645Z,6.20
2024-03-06T01:21:53.341Z,6.80
2024-03-06T01:26:44.966Z,5.35
2024-03-06T01:31:36.611Z,7.95
2024-03-06T01:36:28.274Z,9.52
2024-03-06T01:41:19.930Z,8.15
2024-03-06T01:46:11.603Z,8.00
2024-03-06T01:51:06.091Z,8.15
2024-03-06T01:55:58.080Z,8.48
2024-03-06T02:00:51.408Z,7.47
2024-03-06T02:05:44.379Z,8.25
2024-03-06T02:10:36.158Z,9.45
2024-03-06T02:15:27.872Z,7.85
2024-03-06T02:20:24.778Z,9.80
2024-03-06T02:25:16.831Z,9.18
2024-03-06T02:30:08.916Z,9.80
2024-03-06T02:35:03.207Z,9.38
2024-03-06T02:39:55.206Z,8.95
2024-03-06T02:44:46.838Z,10.00
2024-03-06T02:49:38.699Z,9.57
2024-03-06T02:54:30.402Z,8.63
2024-03-06T02:59:22.202Z,10.55
2024-03-06T03:04:14.110Z,14.27
2024-03-06T03:09:05.927Z,12.98
2024-03-06T03:13:58.178Z,11.88
2024-03-06T03:18:49.909Z,11.60
2024-03-06T03:23:41.777Z,11.00
2024-03-06T03:28:33.705Z,13.95
2024-03-06T03:33:25.802Z,12.35
2024-03-06T03:38:18.350Z,12.65
2024-03-06T03:43:10.067Z,11.68
2024-03-06T03:48:03.893Z,12.98
2024-03-06T03:52:55.544Z,13.50
2024-03-06T03:57:47.184Z,15.40
2024-03-06T04:02:39.449Z,15.52
2024-03-06T04:07:31.283Z,14.02
2024-03-06T04:12:22.915Z,17.35
2024-03-06T04:17:14.727Z,16.17
2024-03-06T04:22:06.682Z,15.23
2024-03-06T04:26:58.259Z,16.33
2024-03-06T04:31:49.872Z,14.30
2024-03-06T04:36:41.587Z,14.45
2024-03-06T04:41:33.233Z,14.80
2024-03-06T04:46:24.860Z,14.13
2024-03-06T04:51:16.616Z,13.93
2024-03-06T04:56:08.759Z,15.38
2024-03-06T05:01:00.494Z,16.38
2024-03-06T06:02:41.249Z,11.52
2024-03-06T06:07:32.857Z,13.13
2024-03-06T06:12:24.469Z,15.15
2024-03-06T06:17:16.987Z,11.75
2024-03-06T06:22:08.730Z,12.15
2024-03-06T06:27:00.335Z,12.18
2024-03-06T06:31:51.962Z,12.27
2024-03-06T06:36:47.557Z,11.80
2024-03-06T06:41:39.214Z,11.60
2024-03-06T06:46:30.859Z,10.05
2024-03-06T06:51:24.265Z,13.05
2024-03-06T06:56:16.101Z,13.32
2024-03-06T07:01:07.711Z,13.68
2024-03-06T07:05:59.569Z,10.48
2024-03-06T07:10:52.375Z,10.35
2024-03-06T07:15:44.054Z,10.18
2024-03-06T07:20:35.857Z,11.70
2024-03-06T07:25:27.477Z,11.80
2024-03-06T07:30:19.547Z,10.02
2024-03-06T07:35:11.669Z,9.23
2024-03-06T07:40:04.481Z,11.45
2024-03-06T07:44:56.088Z,11.15
2024-03-06T07:49:48.032Z,10.63
2024-03-06T07:54:40.784Z,9.88
2024-03-06T07:59:33.447Z,8.52
2024-03-06T08:04:26.078Z,7.80
2024-03-06T08:09:18.161Z,9.50
2024-03-06T08:14:09.806Z,9.32
2024-03-06T08:19:01.762Z,9.18
2024-03-06T08:23:53.363Z,9.13
2024-03-06T08:28:45.058Z,7.82
2024-03-06T08:33:36.800Z,7.70
2024-03-06T08:38:28.638Z,6.40
2024-03-06T08:43:21.186Z,9.13
2024-03-06T08:48:13.076Z,12.43
2024-03-06T08:53:04.974Z,9.30
2024-03-06T08:57:56.554Z,11.43
2024-03-06T09:02:48.353Z,12.50
2024-03-06T09:07:44.011Z,14.05
2024-03-06T09:12:35.706Z,14.00
2024-03-06T09:17:27.966Z,12.13
2024-03-06T09:22:19.646Z,14.25
2024-03-06T09:27:11.269Z,16.38
2024-03-06T09:32:03.300Z,18.10
2024-03-06T09:36:54.958Z,17.40
2024-03-06T09:41:47.383Z,16.33
2024-03-06T09:46:40.274Z,18.77
2024-03-06T09:51:32.919Z,17.77
2024-03-06T09:56:24.568Z,17.52
2024-03-06T10:01:18.088Z,20.55
2024-03-06T10:06:12.047Z,19.98
2024-03-06T10:11:05.902Z,20.60
2024-03-06T10:15:59.346Z,21.17
2024-03-06T10:20:51.199Z,22.17
2024-03-06T10:25:44.724Z,22.42
2024-03-06T10:30:38.982Z,22.75
2024-03-06T10:35:30.749Z,23.85
2024-03-06T10:40:24.147Z,23.83
2024-03-06T10:45:19.177Z,22.10
2024-03-06T10:50:13.703Z,24.10
2024-03-06T10:55:05.882Z,24.20
2024-03-06T11:00:03.395Z,24.42
2024-03-06T11:04:57.546Z,24.08
2024-03-06T11:09:49.932Z,24.02
2024-03-06T11:14:41.859Z,26.58
2024-03-06T11:19:54.372Z,25.77
2024-03-06T11:24:45.997Z,26.23
2024-03-06T11:30:05.348Z,29.77
2024-03-06T11:34:56.987Z,28.30
2024-03-06T11:39:49.180Z,27.90
2024-03-06T11:44:58.481Z,28.33
2024-03-06T11:49:51.231Z,27.38
2024-03-06T11:54:42.818Z,24.77
2024-03-06T11:59:36.856Z,24.40
2024-03-06T12:04:29.144Z,24.17
2024-03-06T12:09:20.805Z,22.95
2024-03-06T12:14:20.121Z,22.23
2024-03-06T12:19:11.848Z,22.83
2024-03-06T12:24:07.809Z,20.42
2024-03-06T12:29:10.981Z,23.15
2024-03-06T12:34:06.162Z,22.13
2024-03-06T12:39:00.854Z,21.95
2024-03-06T12:43:52.512Z,21.80
2024-03-06T12:48:44.366Z,19.50
2024-03-06T12:53:36.628Z,17.92
2024-03-06T12:58:28.505Z,19.67
2024-03-06T13:03:20.151Z,20.08
2024-03-06T13:08:15.279Z,16.10
2024-03-06T13:13:07.928Z,17.48
2024-03-06T13:17:59.673Z,21.27
2024-03-06T13:22:51.292Z,22.20
2024-03-06T13:27:43.035Z,23.10
2024-03-06T13:32:34.873Z,19.98
2024-03-06T13:37:26.676Z,18.17
2024-03-06T13:42:18.459Z,18.15
2024-03-06T13:47:19.714Z,15.57
2024-03-06T13:52:11.914Z,16.20
2024-03-06T13:57:04.246Z,14.70
2024-03-06T14:01:55.875Z,15.25
2024-03-06T14:06:47.551Z,15.27
2024-03-06T14:11:39.530Z,15.13
2024-03-06T14:16:32.323Z,16.27
2024-03-06T14:21:24.020Z,15.48
2024-03-06T14:26:16.679Z,14.15
2024-03-06T14:31:09.041Z,14.57
2024-03-06T14:36:01.044Z,14.43
2024-03-06T14:40:52.700Z,15.00
2024-03-06T14:45:46.819Z,14.60
2024-03-06T14:50:38.448Z,14.85
2024-03-06T14:55:30.149Z,13.25
2024-03-06T15:00:22.548Z,13.07
2024-03-06T15:05:14.435Z,14.43
2024-03-06T15:10:07.518Z,12.30
2024-03-06T15:14:59.552Z,12.18
2024-03-06T15:19:51.322Z,11.95
2024-03-06T15:24:45.517Z,12.40
2024-03-06T15:29:37.179Z,11.70
2024-03-06T15:34:28.874Z,11.68
2024-03-06T15:39:22.569Z,11.95
2024-03-06T15:44:14.458Z,13.05
2024-03-06T15:49:22.033Z,14.27
2024-03-06T15:54:13.821Z,12.73
2024-03-06T15:59:05.473Z,13.20
2024-03-06T16:03:57.112Z,13.57
2024-03-06T16:08:48.829Z,15.05
2024-03-06T16:13:40.808Z,14.82
2024-03-06T16:18:32.494Z,13.93
2024-03-06T16:23:24.090Z,12.82
2024-03-06T16:28:15.736Z,15.30
2024-03-06T16:33:08.589Z,16.70
2024-03-06T16:38:00.330Z,21.67
2024-03-06T16:42:51.909Z,15.05
2024-03-06T16:47:43.668Z,14.10
2024-03-06T16:52:35.320Z,14.82
2024-03-06T16:57:26.967Z,13.20
2024-03-06T17:02:18.642Z,14.48
2024-03-06T17:07:13.448Z,12.88
2024-03-06T17:12:08.853Z,11.73
2024-03-06T17:17:02.105Z,14.18
2024-03-06T17:21:53.764Z,14.15
2024-03-06T17:26:46.525Z,14.82
2024-03-06T17:31:38.529Z,17.83
2024-03-06T17:36:31.901Z,12.18
2024-03-06T17:41:25.475Z,14.82
2024-03-06T17:46:17.515Z,13.88
2024-03-06T17:51:09.256Z,15.85
2024-03-06T17:56:00.967Z,14.95
2024-03-06T18:00:52.722Z,12.23
2024-03-06T18:05:44.353Z,13.82
2024-03-06T18:10:36.249Z,14.73
2024-03-06T18:15:27.910Z,14.30
2024-03-06T18:20:19.650Z,14.93
2024-03-06T18:25:11.247Z,15.32
2024-03-06T18:30:04.297Z,13.10
2024-03-06T18:34:58.891Z,12.98
2024-03-06T18:39:51.510Z,12.82
2024-03-06T18:44:43.421Z,13.80
2024-03-06T18:49:35.044Z,14.93
2024-03-06T18:54:27.598Z,13.98
2024-03-06T18:59:19.384Z,14.98
2024-03-06T19:04:11.291Z,15.02
2024-03-06T19:09:06.610Z,15.25
2024-03-06T19:13:58.397Z,17.90
2024-03-06T19:18:50.002Z,18.83
2024-03-06T19:23:41.708Z,17.30
2024-03-06T19:28:33.598Z,17.50
2024-03-06T19:33:25.325Z,18.67
2024-03-06T19:38:19.510Z,16.85
2024-03-06T19:43:13.121Z,16.48
2024-03-06T19:48:05.321Z,16.08
2024-03-06T19:52:57.049Z,16.10
2024-03-06T19:57:49.935Z,16.33
2024-03-06T20:02:41.649Z,15.45
2024-03-06T20:07:34.133Z,16.35
2024-03-06T20:12:25.968Z,17.42
2024-03-06T20:17:18.105Z,16.92
2024-03-06T20:22:09.816Z,17.52
2024-03-06T20:27:04.019Z,16.75
2024-03-06T20:31:56.258Z,18.85
2024-03-06T20:36:47.995Z,17.10
2024-03-06T20:41:41.211Z,19.00
2024-03-06T20:46:33.088Z,19.80
2024-03-06T20:51:24.762Z,18.48
2024-03-06T20:56:16.520Z,18.98
2024-03-06T21:01:09.393Z,18.13
2024-03-06T21:06:01.022Z,19.20
2024-03-06T21:10:52.786Z,20.25
2024-03-06T21:15:44.420Z,20.75
2024-03-06T21:20:36.156Z,19.00
2024-03-06T21:25:27.970Z,19.88
2024-03-06T21:30:19.816Z,20.15
2024-03-06T21:35:11.656Z,17.95
2024-03-06T21:40:09.624Z,20.90
2024-03-06T21:45:01.325Z,17.20
2024-03-06T21:49:53.080Z,18.27
2024-03-06T21:54:45.072Z,18.13
2024-03-06T21:59:36.842Z,19.13
2024-03-06T22:04:28.411Z,20.00
2024-03-06T22:09:20.023Z,19.92
2024-03-06T22:14:12.888Z,18.77
2024-03-06T22:19:05.729Z,19.70
2024-03-06T22:23:58.251Z,20.75
2024-03-06T22:28:49.948Z,20.15
2024-03-06T22:33:42.921Z,20.30
2024-03-06T22:38:34.563Z,18.90
2024-03-06T22:43:26.176Z,20.80
2024-03-06T22:48:17.874Z,20.33
2024-03-06T22:53:09.779Z,20.60
2024-03-06T22:58:01.861Z,21.88
2024-03-06T23:02:53.496Z,20.33
2024-03-06T23:07:45.149Z,19.98
2024-03-06T23:12:37.070Z,21.33
2024-03-06T23:17:29.188Z,21.02
2024-03-06T23:22:20.861Z,20.33
2024-03-06T23:27:12.533Z,22.40
2024-03-06T23:32:04.480Z,19.40
2024-03-06T23:36:56.190Z,20.30
2024-03-06T23:41:47.956Z,20.83
2024-03-06T23:46:39.633Z,20.50
2024-03-06T23:51:31.300Z,21.02
2024-03-06T23:56:23.002Z,20.33
